createdAt,value
2018-03-16T00:01:22.527Z,44.80
2018-03-16T00:03:49.564Z,44.03
2018-03-16T00:06:16.544Z,41.20
2018-03-16T00:08:42.889Z,40.80
2018-03-16T00:11:09.160Z,43.83
2018-03-16T00:13:35.464Z,42.50
2018-03-16T00:16:01.841Z,42.90
2018-03-16T00:18:28.866Z,43.83
2018-03-16T00:20:55.159Z,41.90
2018-03-16T00:23:21.482Z,44.00
2018-03-16T00:25:47.847Z,43.20
2018-03-16T00:28:14.115Z,43.03
2018-03-16T00:30:41.142Z,44.07
2018-03-16T00:33:07.461Z,43.47
2018-03-16T00:35:33.789Z,43.77
2018-03-16T00:38:00.087Z,45.77
2018-03-16T00:40:26.447Z,45.27
2018-03-16T00:42:52.769Z,43.57
2018-03-16T00:45:19.109Z,46.43
2018-03-16T00:47:45.446Z,46.77
2018-03-16T00:50:11.768Z,43.90
2018-03-16T00:52:38.016Z,43.67
2018-03-16T00:55:04.288Z,46.63
2018-03-16T00:57:31.328Z,43.63
2018-03-16T00:59:58.381Z,44.30
2018-03-16T01:02:24.707Z,46.53
2018-03-16T01:04:51.793Z,45.93
2018-03-16T01:07:18.101Z,47.80
2018-03-16T01:09:44.396Z,45.30
2018-03-16T01:12:10.707Z,46.17
2018-03-16T01:14:36.990Z,44.97
2018-03-16T01:17:03.265Z,45.77
2018-03-16T01:19:29.569Z,45.37
2018-03-16T01:21:55.836Z,47.13
2018-03-16T01:24:22.137Z,46.73
2018-03-16T01:26:48.472Z,44.90
2018-03-16T01:29:14.759Z,46.67
2018-03-16T01:31:41.072Z,43.60
2018-03-16T01:34:07.372Z,46.03
2018-03-16T01:36:33.656Z,44.63
2018-03-16T01:38:59.984Z,44.10
2018-03-16T01:41:27.045Z,44.47
2018-03-16T01:43:53.340Z,42.70
2018-03-16T01:46:19.652Z,46.00
2018-03-16T01:48:45.971Z,41.37
2018-03-16T01:51:12.315Z,47.10
2018-03-16T01:53:38.612Z,46.20
2018-03-16T01:56:04.942Z,46.13
2018-03-16T01:58:31.232Z,46.50
2018-03-16T02:00:57.534Z,44.57
2018-03-16T02:03:23.833Z,45.20
2018-03-16T02:05:50.412Z,46.63
2018-03-16T02:08:16.672Z,45.73
2018-03-16T02:10:43.692Z,43.83
2018-03-16T02:13:09.967Z,44.37
2018-03-16T02:15:36.247Z,45.53
2018-03-16T02:18:02.557Z,44.97
2018-03-16T02:20:28.858Z,42.90
2018-03-16T02:22:55.134Z,44.87
2018-03-16T02:25:21.453Z,42.93
2018-03-16T02:27:47.685Z,43.77
2018-03-16T02:30:14.012Z,46.47
2018-03-16T02:32:40.342Z,47.70
2018-03-16T02:35:06.663Z,45.77
2018-03-16T02:37:33.945Z,44.10
2018-03-16T02:40:00.152Z,46.20
2018-03-16T02:42:26.592Z,45.80
2018-03-16T02:44:52.908Z,44.60
2018-03-16T02:47:19.252Z,46.13
2018-03-16T02:49:45.610Z,44.13
2018-03-16T02:52:11.927Z,45.67
2018-03-16T02:54:38.226Z,46.20
2018-03-16T02:57:04.540Z,45.40
2018-03-16T02:59:30.805Z,46.40
2018-03-16T03:01:57.115Z,47.23
2018-03-16T03:04:23.381Z,47.73
2018-03-16T03:06:49.708Z,48.10
2018-03-16T03:09:16.013Z,47.70
2018-03-16T03:11:42.264Z,48.43
2018-03-16T03:14:08.568Z,47.13
2018-03-16T03:16:34.883Z,48.03
2018-03-16T03:19:01.225Z,45.90
2018-03-16T03:21:27.535Z,45.30
2018-03-16T03:23:54.604Z,45.33
2018-03-16T03:26:20.846Z,47.97
2018-03-16T03:28:47.208Z,49.53
2018-03-16T03:31:13.506Z,48.43
2018-03-16T03:33:39.784Z,45.60
2018-03-16T03:36:06.105Z,46.47
2018-03-16T03:38:32.437Z,48.73
2018-03-16T03:40:58.735Z,47.67
2018-03-16T03:43:25.035Z,46.10
2018-03-16T03:45:51.292Z,51.93
2018-03-16T03:48:17.614Z,51.07
2018-03-16T03:50:43.963Z,50.00
2018-03-16T03:53:10.284Z,47.10
2018-03-16T03:55:36.585Z,47.60
2018-03-16T03:58:03.649Z,50.60
2018-03-16T04:00:29.964Z,48.70
2018-03-16T04:02:57.012Z,50.67
2018-03-16T04:05:24.088Z,53.40
2018-03-16T04:07:50.361Z,48.47
2018-03-16T04:10:16.650Z,48.63
2018-03-16T04:12:43.003Z,48.67
2018-03-16T04:15:09.312Z,50.53
2018-03-16T04:17:35.588Z,49.67
2018-03-16T04:20:01.871Z,50.30
2018-03-16T04:22:28.161Z,51.40
2018-03-16T04:24:55.174Z,52.07
2018-03-16T04:27:21.479Z,48.83
2018-03-16T04:29:47.845Z,51.13
2018-03-16T04:32:14.134Z,50.27
2018-03-16T04:34:40.479Z,49.70
2018-03-16T04:37:06.835Z,51.17
2018-03-16T04:39:33.269Z,53.67
2018-03-16T04:41:59.564Z,53.10
2018-03-16T04:44:25.897Z,51.77
2018-03-16T04:46:52.226Z,50.67
2018-03-16T04:49:18.556Z,52.70
2018-03-16T04:51:44.888Z,51.23
2018-03-16T04:54:11.900Z,51.17
2018-03-16T04:56:38.982Z,50.90
2018-03-16T04:59:05.351Z,54.40
2018-03-16T05:01:31.680Z,53.17
2018-03-16T05:03:58.014Z,50.07
2018-03-16T05:06:24.334Z,50.60
2018-03-16T05:08:50.676Z,52.10
2018-03-16T05:11:16.970Z,51.50
2018-03-16T05:13:43.301Z,49.53
2018-03-16T05:16:09.636Z,52.00
2018-03-16T05:18:36.002Z,52.00
2018-03-16T05:21:02.327Z,52.00
2018-03-16T05:23:28.653Z,52.43
2018-03-16T05:25:55.003Z,52.10
2018-03-16T05:28:21.291Z,55.50
2018-03-16T05:30:47.647Z,49.00
2018-03-16T05:33:14.029Z,52.23
2018-03-16T05:35:41.086Z,52.50
2018-03-16T05:38:07.440Z,53.87
2018-03-16T05:40:33.724Z,53.50
2018-03-16T05:43:00.763Z,50.27
2018-03-16T05:45:27.056Z,50.70
2018-03-16T05:47:53.328Z,51.33
2018-03-16T05:50:19.634Z,54.20
2018-03-16T05:52:45.890Z,51.93
2018-03-16T05:55:12.936Z,50.27
2018-03-16T05:57:39.957Z,50.00
2018-03-16T06:00:06.254Z,53.87
2018-03-16T06:02:32.552Z,54.00
2018-03-16T06:04:59.650Z,54.60
2018-03-16T06:07:25.947Z,53.43
2018-03-16T06:09:52.287Z,54.50
2018-03-16T06:12:18.587Z,55.10
2018-03-16T06:14:45.702Z,53.90
2018-03-16T06:17:11.951Z,55.30
2018-03-16T06:19:38.247Z,52.57
2018-03-16T06:22:04.546Z,56.77
2018-03-16T06:24:31.544Z,49.60
2018-03-16T06:26:57.869Z,52.57
2018-03-16T06:29:24.194Z,51.20
2018-03-16T06:31:50.466Z,51.30
2018-03-16T06:34:16.792Z,52.87
2018-03-16T06:36:43.074Z,53.03
2018-03-16T06:39:09.405Z,52.07
2018-03-16T06:41:35.701Z,49.93
2018-03-16T06:44:02.733Z,50.20
2018-03-16T06:46:29.018Z,55.63
2018-03-16T06:48:55.354Z,53.53
2018-03-16T06:51:21.629Z,53.90
2018-03-16T06:53:48.647Z,51.73
2018-03-16T06:56:14.951Z,53.93
2018-03-16T06:58:41.234Z,52.10
2018-03-16T07:01:07.511Z,51.70
2018-03-16T07:03:33.795Z,48.93
2018-03-16T07:06:00.087Z,50.67
2018-03-16T07:08:26.347Z,51.40
2018-03-16T07:10:52.641Z,51.40
2018-03-16T07:13:19.498Z,51.70
2018-03-16T07:15:45.771Z,47.73
2018-03-16T07:18:12.827Z,47.43
2018-03-16T07:20:39.864Z,48.93
2018-03-16T07:23:06.898Z,47.57
2018-03-16T07:25:33.168Z,46.97
2018-03-16T07:27:59.500Z,45.33
2018-03-16T07:30:25.824Z,41.47
2018-03-16T07:32:52.258Z,44.17
2018-03-16T07:35:18.522Z,44.93
2018-03-16T07:37:44.852Z,42.80
2018-03-16T07:40:11.147Z,42.87
2018-03-16T07:42:37.453Z,41.67
2018-03-16T07:45:03.796Z,41.83
2018-03-16T07:47:30.819Z,41.50
2018-03-16T07:49:57.907Z,41.43
2018-03-16T07:52:24.195Z,38.97
2018-03-16T07:54:50.479Z,39.70
2018-03-16T07:57:16.743Z,40.70
2018-03-16T07:59:43.087Z,41.87
2018-03-16T08:02:10.292Z,41.77
2018-03-16T08:04:36.568Z,38.03
2018-03-16T08:07:02.875Z,38.63
2018-03-16T08:09:29.155Z,36.80
2018-03-16T08:11:56.246Z,40.03
2018-03-16T08:14:22.477Z,34.97
2018-03-16T08:16:48.780Z,36.60
2018-03-16T08:19:15.024Z,35.33
2018-03-16T08:21:41.312Z,34.83
2018-03-16T08:24:08.372Z,35.57
2018-03-16T08:26:34.647Z,34.37
2018-03-16T08:29:00.900Z,32.20
2018-03-16T08:31:27.231Z,33.10
2018-03-16T08:33:53.500Z,32.30
2018-03-16T08:36:19.776Z,30.97
2018-03-16T08:38:46.093Z,36.10
2018-03-16T08:41:12.387Z,31.83
2018-03-16T08:43:39.433Z,32.80
2018-03-16T08:46:05.770Z,30.77
2018-03-16T08:48:32.105Z,28.70
2018-03-16T08:50:59.128Z,27.27
2018-03-16T08:53:26.188Z,29.00
2018-03-16T08:55:53.248Z,28.17
2018-03-16T08:58:19.533Z,26.73
2018-03-16T09:00:45.837Z,28.67
2018-03-16T09:03:12.128Z,29.03
2018-03-16T09:05:39.180Z,28.10
2018-03-16T09:08:06.239Z,27.90
2018-03-16T09:10:32.528Z,28.77
2018-03-16T09:12:58.822Z,27.20
2018-03-16T09:15:25.112Z,26.93
2018-03-16T09:17:52.156Z,26.00
2018-03-16T09:20:18.435Z,25.40
2018-03-16T09:22:44.713Z,24.30
2018-03-16T09:25:11.781Z,23.90
2018-03-16T09:27:38.107Z,25.83
2018-03-16T09:30:05.147Z,26.60
2018-03-16T09:32:31.446Z,29.40
2018-03-16T09:34:57.751Z,26.33
2018-03-16T09:37:24.068Z,27.57
2018-03-16T09:39:50.328Z,27.00
2018-03-16T09:42:16.600Z,24.53
2018-03-16T09:44:43.628Z,22.73
2018-03-16T09:47:09.942Z,27.17
2018-03-16T09:49:36.238Z,26.27
2018-03-16T09:52:02.593Z,24.10
2018-03-16T09:54:28.954Z,24.30
2018-03-16T09:56:55.236Z,24.60
2018-03-16T09:59:21.556Z,24.27
2018-03-16T10:01:47.861Z,22.70
2018-03-16T10:04:14.922Z,24.70
2018-03-16T10:06:42.030Z,23.50
2018-03-16T10:09:21.295Z,23.50
2018-03-16T10:11:48.303Z,22.70
2018-03-16T10:14:14.615Z,24.47
2018-03-16T10:16:40.882Z,21.90
2018-03-16T10:19:07.207Z,22.60
2018-03-16T10:21:33.469Z,23.30
2018-03-16T10:24:00.493Z,23.40
2018-03-16T10:26:26.815Z,23.13
2018-03-16T10:28:53.097Z,20.70
2018-03-16T10:31:19.411Z,23.20
2018-03-16T10:33:45.700Z,24.00
2018-03-16T10:36:11.983Z,22.50
2018-03-16T10:38:38.260Z,19.40
2018-03-16T10:41:04.581Z,21.13
2018-03-16T10:43:30.927Z,23.50
2018-03-16T10:45:57.253Z,21.43
2018-03-16T10:48:23.552Z,23.07
2018-03-16T10:50:49.832Z,23.60
2018-03-16T10:53:16.080Z,25.10
2018-03-16T10:55:43.147Z,25.13
2018-03-16T10:58:09.493Z,22.87
2018-03-16T11:00:41.975Z,23.63
2018-03-16T11:03:08.291Z,24.77
2018-03-16T11:05:40.854Z,25.43
2018-03-16T11:08:07.182Z,25.67
2018-03-16T11:10:34.282Z,24.70
2018-03-16T11:13:00.583Z,28.30
2018-03-16T11:15:26.903Z,27.50
2018-03-16T11:17:53.211Z,26.30
2018-03-16T11:20:20.240Z,25.93
2018-03-16T11:22:46.535Z,26.60
2018-03-16T11:25:12.857Z,26.97
2018-03-16T11:27:39.164Z,26.43
2018-03-16T11:30:05.493Z,27.77
2018-03-16T11:32:31.791Z,27.20
2018-03-16T11:34:58.151Z,26.37
2018-03-16T11:37:25.246Z,27.30
2018-03-16T11:39:51.534Z,27.73
2018-03-16T11:42:18.575Z,28.20
2018-03-16T11:44:46.192Z,28.10
2018-03-16T11:47:12.476Z,27.20
2018-03-16T11:49:38.772Z,28.20
2018-03-16T11:52:05.030Z,28.97
2018-03-16T11:54:32.082Z,25.20
2018-03-16T11:56:59.093Z,28.00
2018-03-16T11:59:25.377Z,29.17
2018-03-16T12:01:51.727Z,29.43
2018-03-16T12:04:18.121Z,27.50
2018-03-16T12:06:45.143Z,26.53
2018-03-16T12:09:11.435Z,30.00
2018-03-16T12:11:37.738Z,28.13
2018-03-16T12:14:04.063Z,26.70
2018-03-16T12:16:31.077Z,28.00
2018-03-16T12:18:57.366Z,27.80
2018-03-16T12:21:23.707Z,28.33
2018-03-16T12:23:50.034Z,30.10
2018-03-16T12:26:16.323Z,31.60
2018-03-16T12:28:49.814Z,28.47
2018-03-16T12:31:09.674Z,29.60
2018-03-16T12:33:35.956Z,28.13
2018-03-16T12:36:02.275Z,28.10
2018-03-16T12:38:29.101Z,27.70
2018-03-16T12:40:56.182Z,26.13
2018-03-16T12:43:22.482Z,28.63
2018-03-16T12:45:49.555Z,26.63
2018-03-16T12:48:15.856Z,24.63
2018-03-16T12:50:42.156Z,25.40
2018-03-16T12:53:08.456Z,26.17
2018-03-16T12:55:34.783Z,25.67
2018-03-16T12:58:01.110Z,23.73
2018-03-16T13:00:27.441Z,20.97
2018-03-16T13:02:53.809Z,21.70
2018-03-16T13:05:20.129Z,22.33
2018-03-16T13:07:46.434Z,21.90
2018-03-16T13:10:12.747Z,19.50
2018-03-16T13:12:39.820Z,22.17
2018-03-16T13:15:06.190Z,19.03
2018-03-16T13:17:32.511Z,20.57
2018-03-16T13:19:58.888Z,23.00
2018-03-16T13:22:26.008Z,21.40
2018-03-16T13:24:52.362Z,21.67
2018-03-16T13:27:19.434Z,22.90
2018-03-16T13:29:45.764Z,20.37
2018-03-16T13:32:12.068Z,22.37
2018-03-16T13:34:39.121Z,23.93
2018-03-16T13:37:06.179Z,23.50
2018-03-16T13:39:33.258Z,20.40
2018-03-16T13:41:59.537Z,21.30
2018-03-16T13:44:25.858Z,22.60
2018-03-16T13:46:52.200Z,22.20
2018-03-16T13:49:18.548Z,21.97
2018-03-16T13:51:45.651Z,19.50
2018-03-16T13:54:11.972Z,20.47
2018-03-16T13:56:38.314Z,19.93
2018-03-16T13:59:04.689Z,20.77
2018-03-16T14:01:31.700Z,20.37
2018-03-16T14:03:58.062Z,19.13
2018-03-16T14:06:25.172Z,20.67
2018-03-16T14:08:51.456Z,20.07
2018-03-16T14:11:18.541Z,20.20
2018-03-16T14:13:44.824Z,22.70
2018-03-16T14:16:11.997Z,21.50
2018-03-16T14:18:38.265Z,23.83
2018-03-16T14:21:04.559Z,22.80
2018-03-16T14:23:30.840Z,24.47
2018-03-16T14:25:57.173Z,23.93
2018-03-16T14:28:23.475Z,26.20
2018-03-16T14:30:49.775Z,27.50
2018-03-16T14:33:16.808Z,25.00
2018-03-16T14:35:43.876Z,24.33
2018-03-16T14:38:10.205Z,24.00
2018-03-16T14:40:36.497Z,26.23
2018-03-16T14:43:03.813Z,23.97
2018-03-16T14:45:30.148Z,25.57
2018-03-16T14:47:56.430Z,25.07
2018-03-16T14:50:23.527Z,23.83
2018-03-16T14:52:49.854Z,26.30
2018-03-16T14:55:16.280Z,23.70
2018-03-16T14:57:42.594Z,24.03
2018-03-16T15:00:09.729Z,25.80
2018-03-16T15:02:36.744Z,25.07
2018-03-16T15:05:03.075Z,25.50
2018-03-16T15:07:29.647Z,26.80
2018-03-16T15:09:56.722Z,27.20
2018-03-16T15:12:23.077Z,24.10
2018-03-16T15:14:49.391Z,23.67
2018-03-16T15:17:15.752Z,25.30
2018-03-16T15:19:42.047Z,25.10
2018-03-16T15:22:09.373Z,24.97
2018-03-16T15:24:36.406Z,23.70
2018-03-16T15:27:02.748Z,25.60
2018-03-16T15:29:29.865Z,23.10
2018-03-16T15:31:56.204Z,23.50
2018-03-16T15:34:22.560Z,24.37
2018-03-16T15:36:48.960Z,24.50
2018-03-16T15:39:15.327Z,23.00
2018-03-16T15:41:42.366Z,24.77
2018-03-16T15:44:08.679Z,21.87
2018-03-16T15:46:35.001Z,22.40
2018-03-16T15:49:01.430Z,25.97
2018-03-16T15:51:27.669Z,23.60
2018-03-16T15:53:55.496Z,26.03
2018-03-16T15:56:21.781Z,24.20
2018-03-16T15:58:48.083Z,23.90
2018-03-16T16:01:14.515Z,20.47
2018-03-16T16:03:40.715Z,23.17
2018-03-16T16:06:07.034Z,24.67
2018-03-16T16:08:33.365Z,22.30
2018-03-16T16:10:59.715Z,22.77
2018-03-16T16:13:26.012Z,21.97
2018-03-16T16:15:53.048Z,25.20
2018-03-16T16:18:19.374Z,22.90
2018-03-16T16:20:45.676Z,23.47
2018-03-16T16:23:12.088Z,25.00
2018-03-16T16:25:38.379Z,21.70
2018-03-16T16:28:04.725Z,23.30
2018-03-16T16:30:31.004Z,25.00
2018-03-16T16:32:57.334Z,25.57
2018-03-16T16:35:23.632Z,24.20
2018-03-16T16:37:49.957Z,26.03
2018-03-16T16:40:16.953Z,23.07
2018-03-16T16:42:43.285Z,23.60
2018-03-16T16:45:09.633Z,23.10
2018-03-16T16:47:35.940Z,21.40
2018-03-16T16:50:02.265Z,21.60
2018-03-16T16:52:28.609Z,21.57
2018-03-16T16:54:54.986Z,22.40
2018-03-16T16:57:21.265Z,20.20
2018-03-16T16:59:47.680Z,20.63
2018-03-16T17:02:13.985Z,22.03
2018-03-16T17:04:40.982Z,21.83
2018-03-16T17:07:07.235Z,20.80
2018-03-16T17:09:33.562Z,20.10
2018-03-16T17:11:59.854Z,21.63
2018-03-16T17:14:26.218Z,20.40
2018-03-16T17:16:52.542Z,20.13
2018-03-16T17:19:18.838Z,22.00
2018-03-16T17:21:45.190Z,20.20
2018-03-16T17:24:11.516Z,22.13
2018-03-16T17:26:37.937Z,21.70
2018-03-16T17:29:04.232Z,19.77
2018-03-16T17:31:30.506Z,19.87
2018-03-16T17:33:56.848Z,18.97
2018-03-16T17:36:23.168Z,20.77
2018-03-16T17:38:49.505Z,20.20
2018-03-16T17:41:15.867Z,21.00
2018-03-16T17:43:42.230Z,19.63
2018-03-16T17:46:08.591Z,19.23
2018-03-16T17:48:34.913Z,19.10
2018-03-16T17:51:01.203Z,20.73
2018-03-16T17:53:28.322Z,18.60
2018-03-16T17:55:54.573Z,21.70
2018-03-16T17:58:20.870Z,20.53
2018-03-16T18:00:47.197Z,22.40
2018-03-16T18:03:13.550Z,20.33
2018-03-16T18:05:39.841Z,20.17
2018-03-16T18:08:06.174Z,19.13
2018-03-16T18:10:32.480Z,20.67
2018-03-16T18:12:59.532Z,20.60
2018-03-16T18:15:26.609Z,21.60
2018-03-16T18:17:52.975Z,21.40
2018-03-16T18:20:19.272Z,18.90
2018-03-16T18:22:45.642Z,20.00
2018-03-16T18:25:11.980Z,21.03
2018-03-16T18:27:38.276Z,21.67
2018-03-16T18:30:04.622Z,20.63
2018-03-16T18:32:31.029Z,21.67
2018-03-16T18:34:57.313Z,21.37
2018-03-16T18:37:23.603Z,21.70
2018-03-16T18:39:49.939Z,22.33
2018-03-16T18:42:16.295Z,21.50
2018-03-16T18:44:42.657Z,19.87
2018-03-16T18:47:09.823Z,21.93
2018-03-16T18:49:36.222Z,20.90
2018-03-16T18:52:02.530Z,20.87
2018-03-16T18:54:28.941Z,22.37
2018-03-16T18:56:55.324Z,21.73
2018-03-16T18:59:23.148Z,21.83
2018-03-16T19:01:49.559Z,22.60
2018-03-16T19:04:16.072Z,22.60
2018-03-16T19:06:43.199Z,21.37
2018-03-16T19:09:09.538Z,22.47
2018-03-16T19:11:35.838Z,22.20
2018-03-16T19:14:02.192Z,21.87
2018-03-16T19:16:28.527Z,21.93
2018-03-16T19:18:55.056Z,22.57
2018-03-16T19:21:21.525Z,18.57
2018-03-16T19:23:48.583Z,19.53
2018-03-16T19:26:14.919Z,20.70
2018-03-16T19:28:41.265Z,23.97
2018-03-16T19:31:07.621Z,23.00
2018-03-16T19:33:33.997Z,22.40
2018-03-16T19:36:01.072Z,20.03
2018-03-16T19:38:27.443Z,20.40
2018-03-16T19:40:53.736Z,20.63
2018-03-16T19:43:20.156Z,20.97
2018-03-16T19:45:47.182Z,19.07
2018-03-16T19:48:14.257Z,20.20
2018-03-16T19:50:40.624Z,18.37
2018-03-16T19:53:06.929Z,21.17
2018-03-16T19:55:33.261Z,17.30
2018-03-16T19:57:59.584Z,19.00
2018-03-16T20:00:25.983Z,19.97
2018-03-16T20:02:53.131Z,19.00
2018-03-16T20:05:20.178Z,21.43
2018-03-16T20:07:47.246Z,19.37
2018-03-16T20:10:13.605Z,19.57
2018-03-16T20:12:39.934Z,19.90
2018-03-16T20:15:06.291Z,20.63
2018-03-16T20:17:32.671Z,20.97
2018-03-16T20:19:59.036Z,18.10
2018-03-16T20:22:25.527Z,18.33
2018-03-16T20:24:52.580Z,20.90
2018-03-16T20:27:19.759Z,18.00
2018-03-16T20:29:46.092Z,19.97
2018-03-16T20:32:12.420Z,18.83
2018-03-16T20:34:38.743Z,19.57
2018-03-16T20:37:05.125Z,17.47
2018-03-16T20:39:31.573Z,18.20
2018-03-16T20:41:57.909Z,19.33
2018-03-16T20:44:25.040Z,17.40
2018-03-16T20:46:51.451Z,18.77
2018-03-16T20:49:18.897Z,18.13
2018-03-16T20:51:45.193Z,19.67
2018-03-16T20:54:12.250Z,16.30
2018-03-16T20:56:39.315Z,16.27
2018-03-16T20:59:05.599Z,16.43
2018-03-16T21:01:32.026Z,15.50
2018-03-16T21:03:58.344Z,18.03
2018-03-16T21:06:24.649Z,18.43
2018-03-16T21:08:50.958Z,14.30
2018-03-16T21:11:17.289Z,15.23
2018-03-16T21:13:43.638Z,16.70
2018-03-16T21:16:09.932Z,18.13
2018-03-16T21:18:37.005Z,15.73
2018-03-16T21:21:03.336Z,15.70
2018-03-16T21:23:29.638Z,17.60
2018-03-16T21:25:56.753Z,17.43
2018-03-16T21:28:30.146Z,16.90
2018-03-16T21:30:56.503Z,16.17
2018-03-16T21:33:22.784Z,15.53
2018-03-16T21:35:49.135Z,17.70
2018-03-16T21:38:15.424Z,18.80
2018-03-16T21:40:42.474Z,17.93
2018-03-16T21:43:09.520Z,16.80
2018-03-16T21:45:35.848Z,16.07
2018-03-16T21:48:02.889Z,15.20
2018-03-16T21:50:29.970Z,15.63
2018-03-16T21:53:03.555Z,16.60
2018-03-16T21:55:30.797Z,17.90
2018-03-16T21:57:57.856Z,15.50
2018-03-16T22:00:24.218Z,17.53
2018-03-16T22:02:50.572Z,18.03
2018-03-16T22:05:16.995Z,18.10
2018-03-16T22:07:43.355Z,16.10
2018-03-16T22:10:09.667Z,16.47
2018-03-16T22:12:35.982Z,15.57
2018-03-16T22:15:02.268Z,15.73
2018-03-16T22:17:28.571Z,16.67
2018-03-16T22:19:54.871Z,15.87
2018-03-16T22:22:21.191Z,17.80
2018-03-16T22:24:47.455Z,16.73
2018-03-16T22:27:13.768Z,15.47
2018-03-16T22:29:40.047Z,15.73
2018-03-16T22:32:07.134Z,18.00
2018-03-16T22:34:33.475Z,16.73
2018-03-16T22:36:59.791Z,16.60
2018-03-16T22:39:26.087Z,15.93
2018-03-16T22:41:53.158Z,15.63
2018-03-16T22:44:19.473Z,16.10
2018-03-16T22:46:46.513Z,14.33
2018-03-16T22:49:12.801Z,14.40
2018-03-16T22:51:39.076Z,15.73
2018-03-16T22:54:06.110Z,15.27
2018-03-16T22:56:32.418Z,16.97
2018-03-16T22:58:58.718Z,13.33
2018-03-16T23:01:25.008Z,13.57
2018-03-16T23:03:52.071Z,15.70
2018-03-16T23:06:18.349Z,13.60
2018-03-16T23:08:44.653Z,12.53
2018-03-16T23:11:10.973Z,14.23
2018-03-16T23:13:37.262Z,13.37
2018-03-16T23:16:03.628Z,13.63
2018-03-16T23:18:29.961Z,15.37
2018-03-16T23:20:56.269Z,15.07
2018-03-16T23:23:23.292Z,12.20
2018-03-16T23:25:49.606Z,11.40
2018-03-16T23:28:15.875Z,12.80
2018-03-16T23:30:42.165Z,13.33
2018-03-16T23:33:08.452Z,11.33
2018-03-16T23:35:34.799Z,11.47
2018-03-16T23:38:01.108Z,11.87
2018-03-16T23:40:28.119Z,11.77
2018-03-16T23:42:54.432Z,10.90
2018-03-16T23:45:20.706Z,10.97
2018-03-16T23:47:46.996Z,11.13
2018-03-16T23:50:13.260Z,11.30
2018-03-16T23:52:39.566Z,10.43
2018-03-16T23:55:05.852Z,9.67
2018-03-16T23:57:32.136Z,10.80
2018-03-16T23:59:58.438Z,10.07
